createdAt,value
2023-03-28T00:01:40.195Z,1.77
2023-03-28T00:04:06.910Z,1.95
2023-03-28T00:06:33.574Z,1.70
2023-03-28T00:09:00.274Z,1.92
2023-03-28T00:11:26.964Z,2.03
2023-03-28T00:14:08.234Z,1.75
2023-03-28T00:16:37.534Z,2.00
2023-03-28T00:19:07.673Z,1.77
2023-03-28T00:21:37.533Z,2.10
2023-03-28T00:24:06.071Z,2.30
2023-03-28T00:26:35.431Z,1.90
2023-03-28T00:29:04.378Z,1.80
2023-03-28T00:31:32.350Z,1.73
2023-03-28T00:33:59.154Z,1.88
2023-03-28T00:36:29.199Z,2.03
2023-03-28T00:38:57.866Z,1.70
2023-03-28T00:41:30.997Z,1.80
2023-03-28T00:43:58.859Z,2.00
2023-03-28T00:46:41.864Z,1.75
2023-03-28T00:49:24.954Z,1.60
2023-03-28T00:51:58.096Z,1.90
2023-03-28T00:54:28.298Z,1.65
2023-03-28T00:57:00.188Z,2.00
2023-03-28T00:59:30.751Z,1.42
2023-03-28T01:01:57.699Z,1.60
2023-03-28T01:04:29.618Z,1.52
2023-03-28T01:06:58.931Z,1.33
2023-03-28T01:09:26.964Z,1.60
2023-03-28T01:11:55.993Z,1.70
2023-03-28T01:14:26.323Z,2.72
2023-03-28T01:16:56.197Z,1.85
2023-03-28T01:19:32.612Z,1.58
2023-03-28T01:22:14.915Z,1.60
2023-03-28T01:25:06.133Z,1.42
2023-03-28T01:28:02.200Z,1.40
2023-03-28T01:31:01.828Z,1.45
2023-03-28T01:33:50.288Z,1.33
2023-03-28T01:36:53.399Z,1.50
2023-03-28T01:39:30.430Z,1.48
2023-03-28T01:42:09.023Z,1.52
2023-03-28T01:44:47.653Z,2.40
2023-03-28T01:47:24.107Z,1.60
2023-03-28T01:50:18.617Z,1.77
2023-03-28T01:52:53.804Z,1.00
2023-03-28T01:55:27.587Z,1.90
2023-03-28T01:58:06.602Z,1.80
2023-03-28T02:00:46.049Z,2.08
2023-03-28T02:03:20.334Z,1.85
2023-03-28T02:05:49.401Z,1.67
2023-03-28T02:08:18.836Z,1.75
2023-03-28T02:10:47.394Z,1.58
2023-03-28T02:13:21.613Z,1.75
2023-03-28T02:15:54.124Z,1.85
2023-03-28T02:18:29.646Z,1.80
2023-03-28T02:21:04.201Z,1.85
2023-03-28T02:25:59.637Z,1.95
2023-03-28T02:28:26.862Z,2.10
2023-03-28T02:30:53.648Z,1.95
2023-03-28T02:33:37.880Z,1.90
2023-03-28T02:36:13.715Z,1.90
2023-03-28T02:38:52.085Z,1.73
2023-03-28T02:41:34.092Z,2.33
2023-03-28T02:44:52.216Z,1.65
2023-03-28T02:47:38.377Z,2.05
2023-03-28T02:50:25.618Z,2.13
2023-03-28T02:53:17.807Z,2.00
2023-03-28T02:56:11.817Z,1.60
2023-03-28T02:58:48.618Z,1.92
2023-03-28T03:01:15.346Z,1.48
2023-03-28T03:03:45.741Z,1.77
2023-03-28T03:06:12.581Z,1.65
2023-03-28T03:08:39.384Z,2.63
2023-03-28T03:11:06.529Z,1.90
2023-03-28T03:13:33.381Z,2.10
2023-03-28T03:16:00.302Z,3.38
2023-03-28T03:18:27.432Z,1.80
2023-03-28T03:20:54.721Z,2.10
2023-03-28T03:23:21.527Z,2.28
2023-03-28T03:25:50.572Z,1.73
2023-03-28T03:28:17.514Z,1.90
2023-03-28T03:30:44.397Z,2.20
2023-03-28T03:33:11.222Z,2.30
2023-03-28T03:35:45.770Z,1.75
2023-03-28T03:38:13.107Z,2.00
2023-03-28T03:40:40.147Z,2.20
2023-03-28T03:43:06.861Z,2.00
2023-03-28T03:45:33.567Z,2.15
2023-03-28T03:48:00.243Z,2.30
2023-03-28T03:50:26.853Z,1.90
2023-03-28T03:52:53.569Z,1.85
2023-03-28T03:55:20.854Z,2.35
2023-03-28T03:57:47.573Z,2.47
2023-03-28T04:00:14.702Z,2.35
2023-03-28T04:02:41.538Z,2.55
2023-03-28T04:05:08.785Z,2.40
2023-03-28T04:07:35.960Z,2.40
2023-03-28T04:10:03.066Z,2.50
2023-03-28T04:12:29.752Z,2.58
2023-03-28T04:14:56.686Z,2.80
2023-03-28T04:17:28.742Z,2.78
2023-03-28T04:19:55.997Z,2.80
2023-03-28T04:22:23.913Z,2.03
2023-03-28T04:24:53.265Z,2.80
2023-03-28T04:27:20.173Z,2.38
2023-03-28T04:29:46.858Z,2.42
2023-03-28T04:32:13.733Z,2.30
2023-03-28T04:34:40.430Z,2.28
2023-03-28T04:37:09.164Z,2.75
2023-03-28T04:39:36.126Z,2.42
2023-03-28T04:42:05.519Z,2.60
2023-03-28T04:44:32.694Z,2.40
2023-03-28T04:46:59.763Z,2.92
2023-03-28T04:49:26.838Z,2.67
2023-03-28T04:51:53.751Z,2.60
2023-03-28T04:54:20.630Z,3.45
2023-03-28T04:56:50.862Z,3.30
2023-03-28T04:59:18.209Z,2.75
2023-03-28T05:01:49.555Z,3.30
2023-03-28T05:04:21.947Z,3.22
2023-03-28T05:06:49.890Z,3.30
2023-03-28T05:09:17.542Z,3.47
2023-03-28T05:11:46.336Z,3.85
2023-03-28T05:14:13.077Z,3.55
2023-03-28T05:16:39.767Z,3.95
2023-03-28T05:19:06.911Z,3.83
2023-03-28T05:21:33.663Z,4.10
2023-03-28T05:24:00.368Z,4.20
2023-03-28T05:26:27.956Z,4.22
2023-03-28T05:28:54.679Z,4.78
2023-03-28T05:31:21.380Z,6.22
2023-03-28T05:33:48.071Z,7.43
2023-03-28T05:36:14.842Z,6.30
2023-03-28T05:38:42.183Z,5.85
2023-03-28T05:41:08.858Z,5.85
2023-03-28T05:43:35.481Z,5.72
2023-03-28T05:46:02.237Z,5.05
2023-03-28T05:48:29.118Z,5.57
2023-03-28T05:50:56.475Z,5.32
2023-03-28T05:53:23.275Z,5.85
2023-03-28T05:55:50.985Z,5.80
2023-03-28T05:58:17.690Z,4.88
2023-03-28T06:00:44.607Z,4.68
2023-03-28T06:03:16.746Z,4.55
2023-03-28T06:05:44.500Z,4.65
2023-03-28T06:08:11.931Z,5.20
2023-03-28T06:10:38.902Z,5.45
2023-03-28T06:13:05.640Z,5.25
2023-03-28T06:15:33.147Z,4.90
2023-03-28T06:17:59.907Z,5.65
2023-03-28T06:20:26.631Z,5.80
2023-03-28T06:22:53.353Z,6.00
2023-03-28T06:25:20.191Z,4.80
2023-03-28T06:27:46.953Z,5.65
2023-03-28T06:30:14.182Z,5.53
2023-03-28T06:32:41.066Z,5.80
2023-03-28T06:35:08.318Z,5.95
2023-03-28T06:37:35.028Z,5.43
2023-03-28T06:40:01.919Z,6.35
2023-03-28T06:42:28.651Z,6.13
2023-03-28T06:44:55.490Z,6.72
2023-03-28T06:47:22.331Z,6.95
2023-03-28T06:49:49.093Z,7.00
2023-03-28T06:52:16.690Z,7.28
2023-03-28T06:54:43.381Z,7.97
2023-03-28T06:57:10.127Z,7.47
2023-03-28T06:59:36.798Z,7.50
2023-03-28T07:02:03.612Z,7.47
2023-03-28T07:04:32.622Z,6.95
2023-03-28T07:06:59.294Z,6.47
2023-03-28T07:09:26.114Z,5.65
2023-03-28T07:11:52.911Z,7.82
2023-03-28T07:14:19.636Z,8.75
2023-03-28T07:16:46.338Z,6.90
2023-03-28T07:19:12.977Z,8.18
2023-03-28T07:21:39.753Z,5.95
2023-03-28T07:24:06.850Z,6.43
2023-03-28T07:26:33.590Z,7.97
2023-03-28T07:29:00.303Z,6.32
2023-03-28T07:31:27.279Z,7.75
2023-03-28T07:33:57.642Z,6.75
2023-03-28T07:36:26.457Z,4.28
2023-03-28T07:38:53.131Z,5.20
2023-03-28T07:41:19.934Z,6.43
2023-03-28T07:43:46.567Z,6.60
2023-03-28T07:46:15.013Z,7.90
2023-03-28T07:48:42.615Z,9.00
2023-03-28T07:51:10.668Z,7.25
2023-03-28T07:53:38.057Z,6.68
2023-03-28T07:56:10.655Z,7.18
2023-03-28T07:58:38.870Z,9.05
2023-03-28T08:01:11.920Z,5.93
2023-03-28T08:03:39.629Z,6.57
2023-03-28T08:06:16.985Z,8.30
2023-03-28T08:08:51.909Z,4.22
2023-03-28T08:11:18.697Z,7.32
2023-03-28T08:13:45.518Z,6.97
2023-03-28T08:16:12.338Z,5.72
2023-03-28T08:18:39.102Z,5.65
2023-03-28T08:21:06.137Z,5.43
2023-03-28T08:23:32.897Z,6.50
2023-03-28T08:26:05.018Z,5.65
2023-03-28T08:28:36.995Z,7.40
2023-03-28T08:31:15.380Z,6.68
2023-03-28T08:33:43.199Z,5.80
2023-03-28T08:36:14.687Z,5.80
2023-03-28T08:38:46.543Z,4.68
2023-03-28T08:41:50.593Z,4.13
2023-03-28T08:44:42.208Z,3.90
2023-03-28T08:47:19.710Z,3.60
2023-03-28T08:49:53.850Z,4.25
2023-03-28T08:52:21.159Z,4.55
2023-03-28T08:55:06.925Z,4.07
2023-03-28T08:57:35.946Z,3.20
2023-03-28T09:00:28.111Z,4.03
2023-03-28T09:02:55.504Z,4.20
2023-03-28T09:05:36.437Z,3.60
2023-03-28T09:08:20.072Z,3.63
2023-03-28T09:11:13.462Z,3.50
2023-03-28T09:14:14.705Z,2.35
2023-03-28T09:17:02.995Z,3.70
2023-03-28T09:20:24.362Z,2.80
2023-03-28T09:23:15.450Z,3.33
2023-03-28T09:25:42.131Z,2.65
2023-03-28T09:28:20.729Z,3.10
2023-03-28T09:30:50.188Z,2.95
2023-03-28T09:33:22.735Z,2.63
2023-03-28T09:35:52.801Z,3.28
2023-03-28T09:38:25.138Z,3.08
2023-03-28T09:40:58.425Z,2.40
2023-03-28T09:43:34.914Z,3.20
2023-03-28T09:46:05.491Z,3.90
2023-03-28T09:48:35.505Z,3.35
2023-03-28T09:51:04.477Z,4.47
2023-03-28T09:53:37.746Z,4.13
2023-03-28T09:56:27.502Z,2.58
2023-03-28T09:58:56.705Z,1.98
2023-03-28T10:01:34.509Z,3.38
2023-03-28T10:04:02.359Z,4.45
2023-03-28T10:06:31.777Z,3.95
2023-03-28T10:09:28.471Z,3.90
2023-03-28T10:12:08.916Z,7.72
2023-03-28T10:14:42.217Z,3.25
2023-03-28T10:17:30.096Z,6.60
2023-03-28T10:20:15.785Z,7.57
2023-03-28T10:22:46.920Z,8.05
2023-03-28T10:25:23.179Z,5.97
2023-03-28T10:27:52.126Z,5.43
2023-03-28T10:30:31.519Z,2.92
2023-03-28T10:33:16.783Z,3.42
2023-03-28T10:35:54.144Z,2.60
2023-03-28T10:38:22.979Z,2.72
2023-03-28T10:41:00.771Z,2.20
2023-03-28T10:43:41.140Z,3.13
2023-03-28T10:46:31.770Z,3.17
2023-03-28T10:49:06.075Z,3.10
2023-03-28T10:51:33.477Z,3.33
2023-03-28T10:54:26.817Z,2.88
2023-03-28T10:57:09.420Z,2.17
2023-03-28T10:59:47.835Z,3.40
2023-03-28T11:02:48.690Z,1.95
2023-03-28T11:05:54.966Z,2.03
2023-03-28T11:08:41.932Z,3.13
2023-03-28T11:11:36.787Z,2.70
2023-03-28T11:14:31.029Z,3.17
2023-03-28T11:17:38.304Z,4.38
2023-03-28T11:20:17.405Z,2.00
2023-03-28T11:23:05.090Z,2.88
2023-03-28T11:25:43.734Z,3.72
2023-03-28T11:28:29.237Z,2.78
2023-03-28T11:30:58.586Z,4.47
2023-03-28T11:33:48.086Z,3.13
2023-03-28T11:36:22.798Z,2.67
2023-03-28T11:41:23.947Z,2.95
2023-03-28T11:44:00.136Z,4.10
2023-03-28T11:46:43.312Z,6.07
2023-03-28T11:49:28.758Z,2.75
2023-03-28T11:52:05.888Z,3.22
2023-03-28T11:54:41.534Z,4.30
2023-03-28T11:57:32.557Z,2.95
2023-03-28T12:03:15.035Z,3.10
2023-03-28T12:06:04.863Z,2.70
2023-03-28T12:08:35.110Z,2.83
2023-03-28T12:11:20.404Z,2.38
2023-03-28T12:14:18.251Z,2.67
2023-03-28T12:16:48.849Z,3.03
2023-03-28T12:19:23.263Z,3.00
2023-03-28T12:21:58.693Z,2.17
2023-03-28T12:24:42.652Z,2.60
2023-03-28T12:27:31.409Z,2.63
2023-03-28T12:30:22.733Z,1.83
2023-03-28T12:33:18.577Z,2.70
2023-03-28T12:36:10.600Z,2.53
2023-03-28T12:38:55.973Z,4.75
2023-03-28T12:41:49.194Z,2.58
2023-03-28T12:44:28.380Z,2.55
2023-03-28T12:47:06.425Z,2.30
2023-03-28T12:49:48.855Z,2.90
2023-03-28T12:52:21.467Z,3.13
2023-03-28T12:55:01.456Z,3.47
2023-03-28T12:57:41.142Z,2.90
2023-03-28T13:00:28.120Z,3.35
2023-03-28T13:03:27.060Z,2.53
2023-03-28T13:06:20.036Z,2.83
2023-03-28T13:09:13.558Z,1.95
2023-03-28T13:11:50.534Z,2.75
2023-03-28T13:14:41.099Z,2.83
2023-03-28T13:17:25.670Z,2.90
2023-03-28T13:19:55.711Z,2.20
2023-03-28T13:22:32.690Z,2.78
2023-03-28T13:25:21.519Z,2.83
2023-03-28T13:27:50.011Z,3.20
2023-03-28T13:30:28.681Z,2.90
2023-03-28T13:33:03.487Z,3.05
2023-03-28T13:36:09.381Z,4.68
2023-03-28T13:41:36.015Z,3.28
2023-03-28T13:44:10.602Z,4.55
2023-03-28T13:46:45.864Z,3.05
2023-03-28T13:49:21.606Z,3.60
2023-03-28T13:51:55.837Z,3.72
2023-03-28T13:54:24.058Z,3.38
2023-03-28T13:56:52.901Z,3.83
2023-03-28T13:59:32.451Z,3.60
2023-03-28T14:02:02.130Z,3.30
2023-03-28T14:04:30.649Z,2.95
2023-03-28T14:06:58.558Z,3.60
2023-03-28T14:09:28.373Z,2.90
2023-03-28T14:12:07.553Z,4.63
2023-03-28T14:14:44.109Z,2.97
2023-03-28T14:17:21.969Z,3.00
2023-03-28T14:19:54.265Z,4.30
2023-03-28T14:22:25.618Z,3.00
2023-03-28T14:24:54.672Z,4.10
2023-03-28T14:27:37.748Z,4.10
2023-03-28T14:30:19.267Z,3.35
2023-03-28T14:32:57.465Z,4.18
2023-03-28T14:35:29.531Z,3.50
2023-03-28T14:38:01.265Z,4.32
2023-03-28T14:40:36.805Z,3.67
2023-03-28T14:43:07.145Z,3.75
2023-03-28T14:45:37.588Z,3.15
2023-03-28T14:48:08.497Z,2.70
2023-03-28T14:50:38.137Z,3.45
2023-03-28T14:53:07.939Z,3.20
2023-03-28T14:55:37.860Z,3.15
2023-03-28T14:58:06.141Z,4.00
2023-03-28T15:00:39.991Z,4.55
2023-03-28T15:03:22.968Z,4.90
2023-03-28T15:05:51.852Z,4.40
2023-03-28T15:08:34.094Z,5.40
2023-03-28T15:11:06.366Z,7.28
2023-03-28T15:13:37.173Z,9.07
2023-03-28T15:16:08.170Z,7.05
2023-03-28T15:18:47.109Z,7.40
2023-03-28T15:21:15.160Z,4.50
2023-03-28T15:23:50.236Z,3.47
2023-03-28T15:26:29.283Z,3.58
2023-03-28T15:28:57.837Z,4.43
2023-03-28T15:31:26.051Z,3.47
2023-03-28T15:33:53.779Z,3.40
2023-03-28T15:36:32.246Z,4.05
2023-03-28T15:39:18.433Z,4.32
2023-03-28T15:41:49.552Z,4.03
2023-03-28T15:44:26.819Z,3.42
2023-03-28T15:47:01.295Z,3.50
2023-03-28T15:49:28.634Z,3.45
2023-03-28T15:52:01.491Z,3.88
2023-03-28T15:54:31.932Z,3.78
2023-03-28T15:57:01.923Z,3.65
2023-03-28T15:59:41.222Z,3.60
2023-03-28T16:02:28.227Z,3.78
2023-03-28T16:05:06.186Z,4.00
2023-03-28T16:07:48.206Z,3.65
2023-03-28T16:10:20.943Z,4.20
2023-03-28T16:12:48.482Z,3.33
2023-03-28T16:15:15.608Z,3.08
2023-03-28T16:17:44.603Z,3.63
2023-03-28T16:20:21.125Z,3.75
2023-03-28T16:22:48.532Z,3.28
2023-03-28T16:25:15.580Z,4.20
2023-03-28T16:27:42.831Z,4.53
2023-03-28T16:30:20.863Z,4.88
2023-03-28T16:32:47.593Z,4.78
2023-03-28T16:35:14.324Z,3.63
2023-03-28T16:37:41.253Z,4.20
2023-03-28T16:40:10.656Z,4.10
2023-03-28T16:42:37.292Z,3.40
2023-03-28T16:45:04.640Z,3.88
2023-03-28T16:47:31.400Z,3.00
2023-03-28T16:49:58.278Z,3.20
2023-03-28T16:52:26.676Z,3.00
2023-03-28T16:54:54.457Z,3.63
2023-03-28T16:57:21.335Z,4.38
2023-03-28T16:59:47.984Z,4.28
2023-03-28T17:02:14.641Z,3.90
2023-03-28T17:04:41.430Z,3.20
2023-03-28T17:07:08.199Z,3.60
2023-03-28T17:09:35.051Z,3.63
2023-03-28T17:12:01.661Z,3.88
2023-03-28T17:14:28.491Z,3.17
2023-03-28T17:16:55.197Z,3.30
2023-03-28T17:19:23.980Z,2.78
2023-03-28T17:21:50.614Z,2.85
2023-03-28T17:24:18.080Z,3.53
2023-03-28T17:26:44.856Z,4.68
2023-03-28T17:29:12.130Z,4.30
2023-03-28T17:31:39.099Z,3.35
2023-03-28T17:34:06.040Z,3.60
2023-03-28T17:36:33.233Z,2.60
2023-03-28T17:39:00.233Z,2.55
2023-03-28T17:41:27.759Z,3.63
2023-03-28T17:43:56.542Z,3.35
2023-03-28T17:46:24.416Z,4.53
2023-03-28T17:48:51.252Z,3.88
2023-03-28T17:51:18.245Z,4.20
2023-03-28T17:53:46.912Z,4.47
2023-03-28T17:56:14.414Z,4.40
2023-03-28T17:58:41.116Z,3.83
2023-03-28T18:01:17.232Z,4.15
2023-03-28T18:03:45.711Z,2.72
2023-03-28T18:06:13.269Z,2.78
2023-03-28T18:08:40.527Z,2.72
2023-03-28T18:11:10.780Z,3.30
2023-03-28T18:13:38.162Z,3.03
2023-03-28T18:16:09.203Z,3.55
2023-03-28T18:18:36.575Z,3.50
2023-03-28T18:21:04.240Z,2.60
2023-03-28T18:23:31.812Z,3.13
2023-03-28T18:25:58.690Z,3.80
2023-03-28T18:28:25.959Z,2.97
2023-03-28T18:30:53.559Z,2.47
2023-03-28T18:33:22.078Z,3.85
2023-03-28T18:35:49.378Z,3.35
2023-03-28T18:38:16.253Z,3.35
2023-03-28T18:40:42.976Z,2.47
2023-03-28T18:43:10.058Z,3.13
2023-03-28T18:45:37.213Z,2.47
2023-03-28T18:48:04.806Z,2.97
2023-03-28T18:50:31.904Z,3.17
2023-03-28T18:52:58.668Z,1.92
2023-03-28T18:55:25.540Z,2.58
2023-03-28T18:57:53.070Z,2.25
2023-03-28T19:00:20.421Z,3.08
2023-03-28T19:02:48.762Z,2.42
2023-03-28T19:05:16.819Z,3.38
2023-03-28T19:07:46.287Z,3.38
2023-03-28T19:10:13.409Z,2.78
2023-03-28T19:12:41.690Z,4.00
2023-03-28T19:15:10.827Z,3.83
2023-03-28T19:17:38.581Z,2.95
2023-03-28T19:20:07.845Z,3.67
2023-03-28T19:22:37.875Z,3.78
2023-03-28T19:25:05.093Z,3.50
2023-03-28T19:27:32.018Z,3.38
2023-03-28T19:29:58.704Z,3.20
2023-03-28T19:32:25.862Z,3.33
2023-03-28T19:34:52.596Z,3.63
2023-03-28T19:37:19.502Z,3.47
2023-03-28T19:39:46.144Z,3.42
2023-03-28T19:42:12.805Z,3.65
2023-03-28T19:44:39.503Z,4.40
2023-03-28T19:47:06.878Z,3.05
2023-03-28T19:49:33.737Z,3.63
2023-03-28T19:52:00.474Z,3.80
2023-03-28T19:54:27.282Z,3.60
2023-03-28T19:56:53.956Z,3.55
2023-03-28T19:59:20.758Z,2.80
2023-03-28T20:01:48.974Z,3.63
2023-03-28T20:04:15.683Z,3.58
2023-03-28T20:06:42.391Z,2.80
2023-03-28T20:09:09.144Z,2.95
2023-03-28T20:11:37.797Z,2.92
2023-03-28T20:14:04.528Z,2.88
2023-03-28T20:16:31.312Z,3.42
2023-03-28T20:18:58.691Z,3.38
2023-03-28T20:21:26.163Z,3.45
2023-03-28T20:23:53.958Z,3.05
2023-03-28T20:26:26.005Z,2.55
2023-03-28T20:28:59.295Z,2.70
2023-03-28T20:31:27.343Z,2.83
2023-03-28T20:33:55.833Z,3.25
2023-03-28T20:36:22.843Z,2.53
2023-03-28T20:38:49.580Z,2.80
2023-03-28T20:41:18.039Z,2.75
2023-03-28T20:43:47.903Z,2.45
2023-03-28T20:46:18.579Z,2.50
2023-03-28T20:48:46.860Z,2.55
2023-03-28T20:51:17.091Z,3.40
2023-03-28T20:53:45.889Z,2.63
2023-03-28T20:56:13.704Z,2.85
2023-03-28T20:58:40.695Z,2.63
2023-03-28T21:01:09.444Z,2.25
2023-03-28T21:03:49.086Z,2.67
2023-03-28T21:06:29.389Z,2.17
2023-03-28T21:09:00.394Z,2.45
2023-03-28T21:11:30.705Z,2.40
2023-03-28T21:13:59.047Z,2.63
2023-03-28T21:16:27.330Z,2.63
2023-03-28T21:18:54.259Z,2.67
2023-03-28T21:21:21.959Z,2.55
2023-03-28T21:23:49.170Z,2.55
2023-03-28T21:26:18.834Z,2.55
2023-03-28T21:28:46.426Z,2.88
2023-03-28T21:31:19.774Z,3.20
2023-03-28T21:33:47.878Z,2.55
2023-03-28T21:36:16.421Z,3.00
2023-03-28T21:38:44.508Z,2.47
2023-03-28T21:41:12.174Z,2.47
2023-03-28T21:43:39.442Z,2.53
2023-03-28T21:46:07.972Z,2.80
2023-03-28T21:48:35.507Z,2.05
2023-03-28T21:51:03.051Z,3.28
2023-03-28T21:53:32.951Z,2.83
2023-03-28T21:55:59.875Z,3.33
2023-03-28T21:58:28.994Z,3.60
2023-03-28T22:00:56.243Z,3.05
2023-03-28T22:03:23.465Z,2.80
2023-03-28T22:05:52.077Z,2.53
2023-03-28T22:08:19.696Z,3.45
2023-03-28T22:10:55.651Z,2.83
2023-03-28T22:13:23.737Z,3.40
2023-03-28T22:15:52.352Z,2.70
2023-03-28T22:18:19.896Z,2.90
2023-03-28T22:20:52.943Z,2.78
2023-03-28T22:23:20.715Z,2.72
2023-03-28T22:25:47.414Z,3.40
2023-03-28T22:28:14.655Z,2.47
2023-03-28T22:30:41.857Z,3.45
2023-03-28T22:33:10.577Z,3.33
2023-03-28T22:35:37.458Z,2.63
2023-03-28T22:38:04.986Z,2.90
2023-03-28T22:40:32.232Z,2.67
2023-03-28T22:42:58.936Z,2.92
2023-03-28T22:45:26.460Z,3.30
2023-03-28T22:47:53.618Z,2.60
2023-03-28T22:50:22.495Z,3.13
2023-03-28T22:52:52.690Z,3.00
2023-03-28T22:55:22.135Z,2.72
2023-03-28T22:57:51.512Z,3.15
2023-03-28T23:00:18.755Z,1.63
2023-03-28T23:02:46.689Z,1.98
2023-03-28T23:05:13.609Z,3.58
2023-03-28T23:07:41.507Z,3.50
2023-03-28T23:10:12.002Z,2.55
2023-03-28T23:12:38.608Z,3.33
2023-03-28T23:15:05.695Z,1.90
2023-03-28T23:17:32.959Z,2.63
2023-03-28T23:20:00.520Z,2.90
2023-03-28T23:22:27.220Z,2.70
2023-03-28T23:24:53.877Z,2.70
2023-03-28T23:27:20.796Z,3.00
2023-03-28T23:29:47.456Z,2.58
2023-03-28T23:32:14.134Z,2.65
2023-03-28T23:34:41.019Z,2.42
2023-03-28T23:37:07.617Z,3.00
2023-03-28T23:39:34.218Z,2.80
2023-03-28T23:42:01.268Z,2.42
2023-03-28T23:44:28.013Z,3.10
2023-03-28T23:46:56.137Z,3.22
2023-03-28T23:49:23.238Z,2.83
2023-03-28T23:51:50.788Z,2.55
2023-03-28T23:54:18.579Z,3.10
2023-03-28T23:56:45.697Z,2.80
2023-03-28T23:59:12.554Z,2.55
